createdAt,value
2023-01-02T00:00:53.653Z,8.96
2023-01-02T00:05:55.721Z,9.03
2023-01-02T00:10:57.993Z,9.11
2023-01-02T00:16:01.346Z,9.19
2023-01-02T00:21:05.329Z,9.29
2023-01-02T00:26:07.424Z,9.32
2023-01-02T00:31:13.795Z,9.31
2023-01-02T00:36:15.851Z,9.37
2023-01-02T00:41:19.053Z,9.42
2023-01-02T00:46:20.876Z,9.37
2023-01-02T00:51:22.595Z,9.28
2023-01-02T00:56:24.377Z,9.19
2023-01-02T01:01:26.309Z,9.12
2023-01-02T01:06:28.236Z,9.04
2023-01-02T01:11:30.045Z,8.97
2023-01-02T01:16:32.517Z,8.93
2023-01-02T01:21:34.256Z,8.87
2023-01-02T01:26:35.953Z,8.81
2023-01-02T01:31:37.701Z,8.74
2023-01-02T01:36:39.634Z,8.67
2023-01-02T01:41:41.339Z,8.60
2023-01-02T01:46:45.277Z,8.51
2023-01-02T01:51:54.186Z,8.40
2023-01-02T01:57:01.857Z,8.30
2023-01-02T02:02:03.904Z,8.25
2023-01-02T02:07:06.159Z,8.17
2023-01-02T02:12:08.716Z,8.06
2023-01-02T02:17:22.437Z,8.00
2023-01-02T02:22:42.791Z,7.97
2023-01-02T02:27:59.641Z,7.97
2023-01-02T02:33:15.554Z,8.05
2023-01-02T02:38:52.279Z,8.14
2023-01-02T02:44:31.303Z,8.26
2023-01-02T02:49:58.019Z,8.32
2023-01-02T02:55:22.273Z,8.39
2023-01-02T03:00:24.717Z,8.42
2023-01-02T03:05:35.104Z,8.45
2023-01-02T03:10:50.108Z,8.58
2023-01-02T03:16:09.647Z,8.64
2023-01-02T03:21:18.685Z,8.63
2023-01-02T03:26:26.051Z,8.65
2023-01-02T03:31:34.410Z,8.69
2023-01-02T03:36:40.267Z,8.65
2023-01-02T03:41:48.781Z,8.62
2023-01-02T03:47:15.171Z,8.56
2023-01-02T03:52:21.016Z,8.51
2023-01-02T03:57:38.217Z,8.50
2023-01-02T04:03:26.242Z,8.47
2023-01-02T04:08:37.978Z,8.44
2023-01-02T04:13:44.343Z,8.41
2023-01-02T04:18:58.207Z,8.34
2023-01-02T04:24:09.409Z,8.27
2023-01-02T04:29:11.573Z,8.19
2023-01-02T04:34:16.400Z,8.14
2023-01-02T04:39:21.773Z,8.11
2023-01-02T04:44:24.127Z,8.06
2023-01-02T04:49:27.223Z,8.03
2023-01-02T04:54:29.078Z,8.10
2023-01-02T04:59:30.858Z,8.25
2023-01-02T05:04:32.556Z,8.38
2023-01-02T05:09:34.411Z,8.42
2023-01-02T05:14:36.147Z,8.45
2023-01-02T05:19:37.857Z,8.48
2023-01-02T05:24:39.543Z,8.47
2023-01-02T05:29:41.323Z,8.45
2023-01-02T05:34:43.063Z,8.43
2023-01-02T05:39:44.787Z,8.40
2023-01-02T05:44:47.044Z,8.37
2023-01-02T05:49:48.772Z,8.34
2023-01-02T05:54:50.594Z,8.29
2023-01-02T05:59:52.356Z,8.21
2023-01-02T06:04:54.064Z,8.14
2023-01-02T06:09:55.781Z,8.09
2023-01-02T06:14:57.464Z,8.03
2023-01-02T06:19:59.196Z,7.96
2023-01-02T06:25:00.875Z,7.90
2023-01-02T06:30:05.322Z,7.87
2023-01-02T06:35:07.287Z,7.84
2023-01-02T06:40:09.173Z,7.79
2023-01-02T06:45:11.413Z,7.73
2023-01-02T06:50:13.234Z,7.68
2023-01-02T06:55:14.968Z,7.64
2023-01-02T07:00:18.986Z,7.61
2023-01-02T07:05:24.574Z,7.65
2023-01-02T07:10:26.610Z,7.68
2023-01-02T07:15:28.579Z,7.73
2023-01-02T07:20:30.303Z,7.79
2023-01-02T07:25:32.071Z,7.85
2023-01-02T07:30:33.807Z,7.91
2023-01-02T07:35:35.584Z,7.97
2023-01-02T07:40:37.292Z,8.08
2023-01-02T07:45:39.048Z,8.22
2023-01-02T07:50:41.324Z,8.37
2023-01-02T07:55:43.248Z,8.50
2023-01-02T08:00:44.934Z,8.64
2023-01-02T08:05:46.734Z,8.73
2023-01-02T08:10:48.510Z,8.97
2023-01-02T08:15:50.203Z,9.22
2023-01-02T08:20:51.957Z,9.47
2023-01-02T08:25:57.849Z,9.91
2023-01-02T08:31:00.528Z,10.08
2023-01-02T08:36:02.380Z,10.25
2023-01-02T08:41:04.299Z,10.38
2023-01-02T08:46:08.138Z,10.57
2023-01-02T08:51:09.934Z,10.78
2023-01-02T08:56:17.869Z,10.92
2023-01-02T09:01:20.017Z,11.20
2023-01-02T09:06:23.869Z,11.51
2023-01-02T09:11:26.939Z,11.78
2023-01-02T09:16:28.857Z,11.96
2023-01-02T09:21:30.691Z,12.20
2023-01-02T09:26:32.477Z,12.40
2023-01-02T09:31:34.719Z,12.61
2023-01-02T09:36:36.833Z,12.78
2023-01-02T09:41:42.359Z,12.91
2023-01-02T09:46:57.136Z,12.97
2023-01-02T09:51:59.176Z,13.04
2023-01-02T09:57:27.712Z,13.15
2023-01-02T10:02:35.635Z,13.27
2023-01-02T10:08:01.555Z,13.35
2023-01-02T10:13:18.876Z,13.42
2023-01-02T10:18:29.951Z,13.57
2023-01-02T10:23:54.066Z,13.72
2023-01-02T10:29:24.045Z,13.82
2023-01-02T10:34:41.658Z,13.96
2023-01-02T10:39:46.439Z,14.11
2023-01-02T10:44:48.333Z,14.28
2023-01-02T10:49:52.171Z,14.42
2023-01-02T10:54:59.908Z,14.59
2023-01-02T11:00:04.377Z,14.71
2023-01-02T11:05:16.123Z,14.86
2023-01-02T11:10:33.161Z,15.00
2023-01-02T11:15:43.441Z,15.14
2023-01-02T11:20:52.257Z,15.22
2023-01-02T11:25:54.642Z,15.35
2023-01-02T11:31:15.063Z,15.45
2023-01-02T11:36:18.636Z,15.48
2023-01-02T11:41:49.053Z,15.45
2023-01-02T11:46:52.036Z,15.44
2023-01-02T11:52:01.850Z,15.39
2023-01-02T11:57:04.086Z,15.38
2023-01-02T12:02:20.429Z,15.42
2023-01-02T12:07:46.860Z,15.51
2023-01-02T12:13:00.595Z,15.54
2023-01-02T12:18:11.376Z,15.62
2023-01-02T12:23:45.884Z,15.74
2023-01-02T12:29:09.415Z,15.77
2023-01-02T12:34:26.404Z,15.77
2023-01-02T12:39:30.906Z,15.69
2023-01-02T12:44:48.113Z,15.63
2023-01-02T12:49:59.016Z,15.53
2023-01-02T12:55:19.665Z,15.46
2023-01-02T13:00:36.006Z,15.45
2023-01-02T13:05:51.320Z,15.40
2023-01-02T13:10:54.510Z,15.38
2023-01-02T13:16:03.760Z,15.38
2023-01-02T13:21:21.209Z,15.34
2023-01-02T13:26:26.280Z,15.24
2023-01-02T13:31:48.219Z,15.16
2023-01-02T13:36:57.748Z,15.12
2023-01-02T13:42:21.313Z,15.06
2023-01-02T13:47:34.894Z,15.00
2023-01-02T13:52:37.571Z,14.96
2023-01-02T13:57:39.301Z,14.91
2023-01-02T14:02:41.042Z,14.87
2023-01-02T14:07:45.837Z,14.74
2023-01-02T14:12:57.562Z,14.60
2023-01-02T14:18:05.861Z,14.43
2023-01-02T14:23:10.821Z,14.31
2023-01-02T14:28:21.833Z,14.21
2023-01-02T14:33:33.694Z,14.09
2023-01-02T14:38:41.392Z,13.92
2023-01-02T14:43:45.001Z,13.78
2023-01-02T14:49:25.028Z,13.63
2023-01-02T14:54:42.368Z,13.56
2023-01-02T14:59:48.830Z,13.40
2023-01-02T15:04:57.005Z,13.16
2023-01-02T15:10:04.184Z,12.97
2023-01-02T15:15:09.082Z,12.78
2023-01-02T15:20:26.501Z,12.62
2023-01-02T15:25:37.810Z,12.50
2023-01-02T15:30:40.324Z,12.42
2023-01-02T15:35:42.128Z,12.39
2023-01-02T15:40:44.863Z,12.29
2023-01-02T15:45:51.346Z,12.17
2023-01-02T15:50:56.165Z,12.09
2023-01-02T15:55:58.713Z,12.00
2023-01-02T16:01:16.273Z,11.89
2023-01-02T16:06:24.086Z,11.88
2023-01-02T16:11:26.847Z,11.82
2023-01-02T16:16:48.593Z,11.78
2023-01-02T16:21:59.952Z,11.70
2023-01-02T16:27:02.247Z,11.68
2023-01-02T16:32:03.995Z,11.61
2023-01-02T16:37:28.771Z,11.52
2023-01-02T16:42:36.823Z,11.35
2023-01-02T16:47:40.977Z,11.29
2023-01-02T16:52:43.368Z,11.23
2023-01-02T16:57:45.114Z,11.16
2023-01-02T17:02:47.660Z,11.11
2023-01-02T17:07:49.591Z,11.05
2023-01-02T17:12:51.391Z,11.05
2023-01-02T17:17:53.076Z,11.00
2023-01-02T17:22:55.126Z,10.95
2023-01-02T17:27:57.408Z,10.88
2023-01-02T17:33:03.937Z,10.80
2023-01-02T17:38:07.061Z,10.80
2023-01-02T17:43:08.735Z,10.72
2023-01-02T17:48:12.842Z,10.71
2023-01-02T17:53:16.006Z,10.61
2023-01-02T17:58:17.835Z,10.58
2023-01-02T18:03:19.585Z,10.54
2023-01-02T18:08:21.866Z,10.47
2023-01-02T18:13:23.750Z,10.43
2023-01-02T18:18:27.572Z,10.34
2023-01-02T18:23:29.298Z,10.24
2023-01-02T18:28:30.975Z,10.17
2023-01-02T18:33:33.278Z,10.13
2023-01-02T18:38:38.145Z,10.09
2023-01-02T18:43:41.640Z,10.06
2023-01-02T18:48:43.873Z,10.04
2023-01-02T18:53:54.321Z,9.97
2023-01-02T18:59:14.212Z,9.93
2023-01-02T19:04:28.211Z,9.86
2023-01-02T19:09:36.580Z,9.81
2023-01-02T19:14:41.206Z,9.81
2023-01-02T19:19:44.400Z,9.77
2023-01-02T19:24:46.596Z,9.73
2023-01-02T19:29:49.293Z,9.69
2023-01-02T19:34:52.874Z,9.69
2023-01-02T19:39:57.337Z,9.67
2023-01-02T19:45:00.969Z,9.67
2023-01-02T19:50:05.181Z,9.66
2023-01-02T19:55:08.499Z,9.62
2023-01-02T20:00:13.981Z,9.57
2023-01-02T20:05:21.350Z,9.60
2023-01-02T20:10:24.708Z,9.56
2023-01-02T20:15:28.303Z,9.57
2023-01-02T20:20:30.254Z,9.53
2023-01-02T20:25:33.194Z,9.50
2023-01-02T20:30:35.018Z,9.47
2023-01-02T20:35:36.716Z,9.50
2023-01-02T20:40:38.404Z,9.44
2023-01-02T20:45:40.252Z,9.42
2023-01-02T20:50:42.068Z,9.40
2023-01-02T20:55:44.564Z,9.34
2023-01-02T21:00:47.525Z,9.34
2023-01-02T21:05:49.284Z,9.30
2023-01-02T21:10:51.110Z,9.30
2023-01-02T21:15:53.003Z,9.29
2023-01-02T21:21:17.689Z,9.27
2023-01-02T21:26:21.828Z,9.27
2023-01-02T21:31:23.700Z,9.22
2023-01-02T21:36:25.438Z,9.22
2023-01-02T21:41:45.928Z,9.17
2023-01-02T21:46:47.673Z,9.13
2023-01-02T21:51:49.348Z,9.13
2023-01-02T21:56:51.092Z,9.13
2023-01-02T22:01:54.524Z,9.09
2023-01-02T22:12:21.981Z,9.00
2023-01-02T22:17:23.739Z,8.97
2023-01-02T22:22:25.595Z,8.98
2023-01-02T22:27:28.650Z,8.92
2023-01-02T22:32:34.374Z,8.97
2023-01-02T22:37:36.283Z,8.92
2023-01-02T22:43:10.432Z,8.83
2023-01-02T22:48:20.610Z,8.77
2023-01-02T22:53:34.410Z,8.69
2023-01-02T22:58:36.135Z,8.65
2023-01-02T23:03:42.600Z,8.64
2023-01-02T23:08:44.454Z,8.60
2023-01-02T23:13:50.275Z,8.61
2023-01-02T23:19:14.939Z,8.55
2023-01-02T23:24:20.054Z,8.50
2023-01-02T23:29:23.231Z,8.48
2023-01-02T23:34:27.447Z,8.46
2023-01-02T23:39:31.041Z,8.47
2023-01-02T23:44:32.727Z,8.46
2023-01-02T23:49:34.388Z,8.44
2023-01-02T23:54:36.091Z,8.44
2023-01-02T23:59:37.816Z,8.41
